Time;durP1;ratioP1;P1;durP2;ratioP2;P2;SDS_P1;SDS_P2;PMS_P1;PMS_P2;Temp;Humidity;BMP_temperature;BMP_pressure;BME280_temperature;BME280_humidity;BME280_pressure;Samples;Min_cycle;Max_cycle;Signal;HPM_P1;HPM_P2
2022/08/14 00:00:51;;;;;;;9.20;5.07;;;21.40;99.90;;;-144.05;44.49;125687.94;4956973;28;20504;-89
2022/08/14 00:03:25;;;;;;;8.55;5.38;;;21.40;99.90;;;-144.05;44.72;125687.94;4936003;29;20385;-87
2022/08/14 00:05:54;;;;;;;8.10;5.55;;;21.30;99.90;;;-144.05;44.80;125687.94;4918899;29;20083;-86
2022/08/14 00:08:20;;;;;;;7.13;5.05;;;21.30;99.90;;;-144.05;44.90;125687.94;4918385;29;20057;-85
2022/08/14 00:10:47;;;;;;;6.72;4.95;;;21.20;99.90;;;-144.05;44.93;125687.94;4918870;29;20034;-88
2022/08/14 00:13:16;;;;;;;9.27;5.22;;;21.30;99.90;;;-144.05;45.06;125687.94;4950478;28;20045;-85
2022/08/14 00:15:46;;;;;;;5.20;4.63;;;21.20;99.90;;;-144.05;45.22;125687.94;4974556;28;20030;-86
2022/08/14 00:18:20;;;;;;;7.32;5.00;;;21.10;99.90;;;-144.05;45.47;125687.94;4957198;28;20035;-88
2022/08/14 00:20:47;;;;;;;7.35;4.75;;;21.00;99.90;;;-144.05;45.87;125687.94;4975227;28;20093;-87
2022/08/14 00:23:17;;;;;;;5.53;4.57;;;21.00;99.90;;;-144.05;46.02;125687.94;4957552;28;20102;-86
2022/08/14 00:25:48;;;;;;;6.75;5.20;;;20.90;99.90;;;-144.05;46.28;125687.94;4975092;28;20169;-84
2022/08/14 00:28:15;;;;;;;7.63;5.30;;;20.90;99.90;;;-144.05;46.26;125687.94;4957464;28;20078;-86
2022/08/14 00:30:41;;;;;;;5.55;5.00;;;20.80;99.90;;;-144.05;46.48;125687.94;4958123;28;20029;-87
2022/08/14 00:33:07;;;;;;;7.50;5.30;;;20.80;99.90;;;-144.05;46.76;125687.94;4958205;28;20031;-86
2022/08/14 00:35:34;;;;;;;9.35;5.30;;;20.70;99.90;;;-144.05;47.13;125687.94;4978864;28;20026;-88
2022/08/14 00:38:01;;;;;;;6.53;5.00;;;20.60;99.90;;;-144.05;47.00;125687.94;4982206;28;20049;-88
2022/08/14 00:40:27;;;;;;;5.88;5.25;;;20.60;99.90;;;-144.05;47.17;125687.94;4961042;28;20117;-88
2022/08/14 00:42:53;;;;;;;5.85;4.95;;;20.60;99.90;;;-144.05;47.30;125687.94;4977666;28;20030;-84
2022/08/14 00:45:19;;;;;;;8.82;5.05;;;20.60;99.90;;;-144.05;47.21;125687.94;4979364;28;20081;-84
2022/08/14 00:47:48;;;;;;;5.78;4.72;;;20.60;99.90;;;-144.05;47.26;125687.94;4960674;28;20038;-86
2022/08/14 00:50:20;;;;;;;7.65;5.13;;;20.60;99.90;;;-144.05;47.85;125687.94;4977584;28;20483;-88
2022/08/14 00:52:51;;;;;;;6.95;5.50;;;20.50;99.90;;;-144.05;48.10;125687.94;4977174;28;20023;-86
2022/08/14 00:55:20;;;;;;;5.25;4.75;;;20.50;99.90;;;-144.05;48.03;125687.94;4977529;28;20393;-88
2022/08/14 00:58:29;;;;;;;8.02;5.47;;;20.40;99.90;;;-144.05;48.19;125687.94;4977592;28;20039;-84
2022/08/14 01:00:38;;;;;;;7.55;5.30;;;20.40;99.90;;;-144.05;48.17;125687.94;4977278;28;20058;-88
2022/08/14 01:03:07;;;;;;;7.28;5.10;;;20.40;99.90;;;-144.05;48.39;125687.94;4959943;28;20031;-86
2022/08/14 01:05:34;;;;;;;5.97;5.28;;;20.30;99.90;;;-144.05;48.65;125687.94;4978439;28;20034;-87
2022/08/14 01:08:01;;;;;;;6.75;5.03;;;20.30;99.90;;;-144.05;48.63;125687.94;4978075;28;20035;-84
2022/08/14 01:13:29;;;;;;;6.00;5.40;;;20.30;99.90;;;-144.05;49.05;125687.94;4970689;28;20445;-88
2022/08/14 01:16:04;;;;;;;10.38;6.05;;;20.20;99.90;;;-144.05;49.07;125687.94;4941615;29;20030;-87
2022/08/14 01:21:30;;;;;;;10.40;6.15;;;20.20;99.90;;;-144.05;49.47;125687.94;4959895;29;19937;-84
2022/08/14 01:23:57;;;;;;;6.45;5.75;;;20.10;99.90;;;-144.05;49.50;125687.94;4958248;29;20031;-87
2022/08/14 01:26:27;;;;;;;7.57;5.43;;;20.10;99.90;;;-144.05;49.53;125687.94;4941035;29;20131;-85
2022/08/14 01:28:58;;;;;;;7.63;5.22;;;20.10;99.90;;;-144.05;49.65;125687.94;4941089;29;20469;-86
2022/08/14 01:31:30;;;;;;;6.75;5.95;;;20.10;99.90;;;-144.05;49.69;125687.94;4958985;29;20027;-88
2022/08/14 01:34:04;;;;;;;8.50;5.85;;;20.10;99.90;;;-144.05;49.87;125687.94;4942102;29;20028;-88
2022/08/14 01:36:35;;;;;;;7.15;5.43;;;20.10;99.90;;;-144.05;49.83;125687.94;4960222;29;20024;-83
2022/08/14 01:39:22;;;;;;;7.43;5.95;;;20.00;99.90;;;-144.05;50.05;125687.94;4963728;28;20043;-84
2022/08/14 01:41:55;;;;;;;7.28;5.60;;;20.00;99.90;;;-144.05;50.16;125687.94;4962981;29;20051;-84
2022/08/14 01:44:28;;;;;;;7.85;5.93;;;20.00;99.90;;;-144.05;50.18;125687.94;4979932;29;20021;-82
2022/08/14 01:47:02;;;;;;;9.80;5.80;;;20.00;99.90;;;-144.05;50.31;125687.94;4961139;29;20059;-89
2022/08/14 01:49:31;;;;;;;7.00;6.20;;;19.90;99.90;;;-144.05;50.45;125687.94;4966730;29;20095;-87
2022/08/14 01:51:57;;;;;;;8.00;5.82;;;19.90;99.90;;;-144.05;50.87;125687.94;4961999;29;20028;-87
2022/08/14 01:54:24;;;;;;;8.90;5.97;;;19.80;99.90;;;-144.05;51.04;125687.94;4973743;29;20047;-84
2022/08/14 01:56:56;;;;;;;6.70;5.97;;;19.80;99.90;;;-144.05;51.11;125687.94;4968599;29;20030;-84
2022/08/14 01:59:32;;;;;;;9.07;6.50;;;19.70;99.90;;;-144.05;51.40;125687.94;4963877;28;20043;-87
2022/08/14 02:02:12;;;;;;;6.85;6.20;;;19.70;99.90;;;-144.05;51.55;125687.94;4957408;29;20038;-86
2022/08/14 02:04:40;;;;;;;8.13;5.65;;;19.60;99.90;;;-144.05;51.73;125687.94;4940257;29;20505;-85
2022/08/14 02:07:08;;;;;;;9.73;6.00;;;19.60;99.90;;;-144.05;51.82;125687.94;4939821;29;20416;-85
2022/08/14 02:09:37;;;;;;;7.10;6.40;;;19.60;99.90;;;-144.05;51.93;125687.94;4956866;29;20397;-86
2022/08/14 02:12:07;;;;;;;9.70;5.97;;;19.50;99.90;;;-144.05;52.19;125687.94;4956957;29;20393;-87
2022/08/14 02:14:35;;;;;;;8.02;6.28;;;19.50;99.90;;;-144.05;52.29;125687.94;4974702;28;20110;-88
2022/08/14 02:17:03;;;;;;;8.10;6.53;;;19.50;99.90;;;-144.05;52.38;125687.94;4976241;28;20085;-88
2022/08/14 02:19:30;;;;;;;7.97;7.10;;;19.60;99.90;;;-144.05;52.28;125687.94;4958919;28;20034;-86
2022/08/14 02:21:59;;;;;;;10.23;7.53;;;19.60;99.90;;;-144.05;52.39;125687.94;4976145;28;20511;-86
2022/08/14 02:24:28;;;;;;;10.23;7.55;;;19.60;99.90;;;-144.05;52.38;125687.94;4976795;28;20039;-85
2022/08/14 02:26:59;;;;;;;9.05;6.50;;;19.60;99.90;;;-144.05;52.31;125687.94;4976597;28;20118;-87
2022/08/14 02:29:29;;;;;;;9.70;7.20;;;19.60;99.90;;;-144.05;52.88;125687.94;4958969;28;20127;-85
2022/08/14 02:32:00;;;;;;;8.10;7.30;;;19.60;99.90;;;-144.05;53.04;125687.94;4976376;28;20031;-87
2022/08/14 02:34:35;;;;;;;10.20;7.47;;;19.60;99.90;;;-144.05;53.38;125687.94;4959301;28;20031;-87
2022/08/14 02:37:11;;;;;;;8.88;6.78;;;19.60;99.90;;;-144.05;53.40;125687.94;4976548;28;20031;-87
2022/08/14 02:39:44;;;;;;;12.27;6.65;;;19.60;99.90;;;-144.05;53.24;125687.94;4959225;28;20038;-89
2022/08/14 02:42:20;;;;;;;7.93;7.15;;;19.60;99.90;;;-144.05;53.54;125687.94;4976930;28;20037;-87
2022/08/14 02:44:47;;;;;;;11.43;7.05;;;19.60;99.90;;;-144.05;53.33;125687.94;4976125;28;20038;-87
2022/08/14 02:47:14;;;;;;;9.38;7.35;;;19.60;99.90;;;-144.05;53.30;125687.94;4960148;28;20130;-87
2022/08/14 02:49:40;;;;;;;10.38;8.05;;;19.60;99.90;;;-144.05;53.62;125687.94;4978576;28;20038;-89
2022/08/14 02:52:07;;;;;;;10.80;7.28;;;19.50;99.90;;;-144.05;53.64;125687.94;4958623;28;20038;-88
2022/08/14 02:54:34;;;;;;;9.90;7.55;;;19.50;99.90;;;-144.05;53.99;125687.94;4959199;28;20033;-85
2022/08/14 02:57:05;;;;;;;8.57;7.53;;;19.50;99.90;;;-144.05;54.22;125687.94;4958350;28;20092;-87
2022/08/14 02:59:37;;;;;;;8.20;7.13;;;19.50;99.90;;;-144.05;53.92;125687.94;4975393;28;20031;-90
2022/08/14 03:02:04;;;;;;;8.43;7.47;;;19.50;99.90;;;-144.05;54.27;125687.94;4965072;28;20069;-85
2022/08/14 03:04:31;;;;;;;8.35;7.47;;;19.40;99.90;;;-144.05;54.49;125687.94;4982692;28;20060;-88
2022/08/14 03:06:57;;;;;;;8.68;7.47;;;19.40;99.90;;;-144.05;54.73;125687.94;4978622;28;20031;-86
2022/08/14 03:09:24;;;;;;;11.52;7.60;;;19.30;99.90;;;-144.05;54.73;125687.94;4974814;28;20055;-84
2022/08/14 03:11:51;;;;;;;9.05;7.55;;;19.30;99.90;;;-144.05;54.80;125687.94;4974823;28;20038;-86
2022/08/14 03:14:17;;;;;;;9.27;7.28;;;19.30;99.90;;;-144.05;54.79;125687.94;4938775;29;20038;-87
2022/08/14 03:16:44;;;;;;;6.88;6.22;;;19.20;99.90;;;-144.05;54.99;125687.94;4936216;29;20028;-88
2022/08/14 03:19:10;;;;;;;9.32;7.40;;;19.20;99.90;;;-144.05;55.30;125687.94;4936336;29;20401;-87
2022/08/14 03:21:38;;;;;;;9.60;8.30;;;19.10;99.90;;;-144.05;55.93;125687.94;4919004;29;20031;-86
2022/08/14 03:24:11;;;;;;;9.48;7.60;;;19.00;99.90;;;-144.05;56.03;125687.94;4919237;29;20031;-86
2022/08/14 03:26:46;;;;;;;10.18;7.80;;;19.00;99.90;;;-144.05;56.37;125687.94;4919633;29;20067;-88
2022/08/14 03:29:19;;;;;;;9.52;6.97;;;18.90;99.90;;;-144.05;56.69;125687.94;4918977;29;20067;-88
2022/08/14 03:31:50;;;;;;;7.60;6.50;;;18.80;99.90;;;-144.05;57.27;125687.94;4936033;29;20050;-88
2022/08/14 03:34:17;;;;;;;9.68;6.70;;;18.60;99.90;;;-144.05;57.97;125687.94;4919136;29;20031;-86
2022/08/14 03:36:44;;;;;;;8.25;7.43;;;18.40;99.90;;;-144.05;58.73;125687.94;4918956;29;20056;-87
2022/08/14 03:39:12;;;;;;;7.72;7.03;;;18.30;99.90;;;-144.05;58.84;125687.94;4935864;29;20035;-85
2022/08/14 03:41:39;;;;;;;8.85;7.18;;;18.20;99.90;;;-144.05;59.22;125687.94;4919243;29;20031;-87
2022/08/14 03:44:06;;;;;;;8.63;6.90;;;18.10;99.90;;;-144.05;59.48;125687.94;4936321;29;20055;-87
2022/08/14 03:46:37;;;;;;;9.20;7.90;;;17.90;99.90;;;-144.05;60.01;125687.94;4936276;29;20047;-86
2022/08/14 03:49:05;;;;;;;7.88;7.00;;;17.80;99.90;;;-144.05;60.55;125687.94;4936072;29;20028;-86
2022/08/14 03:51:34;;;;;;;11.38;7.80;;;17.60;99.90;;;-144.05;61.05;125687.94;4936403;29;20036;-88
2022/08/14 03:54:07;;;;;;;12.50;8.65;;;17.50;99.90;;;-144.05;61.39;125687.94;4919088;29;20031;-86
2022/08/14 03:56:36;;;;;;;10.90;8.43;;;17.50;99.90;;;-144.05;61.88;125687.94;4936522;29;20024;-85
2022/08/14 03:59:10;;;;;;;10.30;7.97;;;17.30;99.90;;;-144.05;62.21;125687.94;4935292;29;20035;-86
2022/08/14 04:01:39;;;;;;;10.15;8.18;;;17.30;99.90;;;-144.05;62.43;125687.94;4936494;29;20027;-86
2022/08/14 04:04:07;;;;;;;9.43;8.50;;;17.20;99.90;;;-144.05;62.96;125687.94;4952220;29;20016;-85
2022/08/14 04:06:38;;;;;;;10.85;9.00;;;17.20;99.90;;;-144.05;63.36;125687.94;4944569;29;20043;-87
2022/08/14 04:09:06;;;;;;;9.35;8.40;;;17.10;99.90;;;-144.05;64.03;125687.94;4936363;29;20096;-89
2022/08/14 04:11:37;;;;;;;10.35;9.32;;;17.10;99.90;;;-144.05;64.01;125687.94;4939494;29;20027;-89
2022/08/14 04:14:05;;;;;;;11.70;8.75;;;17.10;99.90;;;-144.05;63.94;125687.94;4952973;29;20120;-86
2022/08/14 04:16:35;;;;;;;9.95;8.23;;;17.10;99.90;;;-144.05;64.42;125687.94;4942561;29;20038;-86
2022/08/14 04:19:03;;;;;;;10.07;8.52;;;17.20;99.90;;;-144.05;64.19;125687.94;4942324;29;20122;-85
2022/08/14 04:21:35;;;;;;;13.18;9.32;;;17.20;99.90;;;-144.05;64.06;125687.94;4960650;29;20074;-85
2022/08/14 04:24:02;;;;;;;13.70;9.02;;;17.20;99.90;;;-144.05;64.33;125687.94;4945025;29;20038;-83
2022/08/14 04:26:30;;;;;;;13.43;9.30;;;17.20;99.90;;;-144.05;64.33;125687.94;4944467;29;20031;-84
2022/08/14 04:28:57;;;;;;;11.15;8.77;;;17.20;99.90;;;-144.05;64.63;125687.94;4944728;29;20035;-86
2022/08/14 04:31:24;;;;;;;10.35;9.27;;;17.10;99.90;;;-144.05;64.74;125687.94;4944471;29;20027;-85
2022/08/14 04:33:51;;;;;;;10.48;8.45;;;17.10;99.90;;;-144.05;64.89;125687.94;4944101;29;20403;-84
2022/08/14 04:36:19;;;;;;;12.45;9.60;;;17.10;99.90;;;-144.05;65.01;125687.94;4943888;29;20033;-86
2022/08/14 04:44:23;;;;;;;11.68;10.13;;;17.30;99.90;;;-144.05;64.39;125687.94;4961696;29;20031;-84
2022/08/14 04:49:37;;;;;;;11.55;9.90;;;17.50;99.90;;;-144.05;63.63;125687.94;4961436;29;20031;-85
2022/08/14 04:52:04;;;;;;;11.57;9.73;;;17.70;99.90;;;-144.05;63.41;125687.94;4944268;29;20038;-85
2022/08/14 04:54:39;;;;;;;12.82;10.93;;;17.80;99.90;;;-144.05;63.46;125687.94;4960789;29;20031;-84
2022/08/14 04:57:20;;;;;;;11.67;9.53;;;17.90;99.90;;;-144.05;62.94;125687.94;4961234;29;20042;-86
2022/08/14 04:59:46;;;;;;;12.07;10.38;;;18.00;99.90;;;-144.05;62.92;125687.94;4946192;29;20043;-86
2022/08/14 05:02:12;;;;;;;13.35;10.45;;;18.00;99.90;;;-144.05;62.61;125687.94;4957978;29;20023;-86
2022/08/14 05:04:41;;;;;;;14.20;10.48;;;18.20;99.90;;;-144.05;62.49;125687.94;4942713;29;20034;-85
2022/08/14 05:07:07;;;;;;;13.63;9.73;;;18.30;99.90;;;-144.05;62.11;125687.94;4943066;29;20028;-88
2022/08/14 05:09:52;;;;;;;11.63;9.77;;;18.30;99.90;;;-144.05;62.13;125687.94;4958434;29;20050;-85
2022/08/14 05:12:24;;;;;;;14.48;9.60;;;18.40;99.90;;;-144.05;61.96;125687.94;4943217;29;20492;-85
2022/08/14 05:14:50;;;;;;;14.50;10.40;;;18.40;99.90;;;-144.05;61.91;125687.94;4940915;29;20434;-84
2022/08/14 05:17:15;;;;;;;13.55;11.02;;;18.50;99.90;;;-144.05;61.69;125687.94;4924457;29;20050;-86
2022/08/14 05:19:43;;;;;;;12.32;10.25;;;18.60;99.90;;;-144.05;61.03;125687.94;4924082;29;20504;-84
2022/08/14 05:22:09;;;;;;;11.57;10.38;;;18.70;99.90;;;-144.05;60.46;125687.94;4940064;29;20385;-85
2022/08/14 05:24:49;;;;;;;14.10;11.15;;;18.90;99.90;;;-144.05;59.92;125687.94;4922975;29;20038;-85
2022/08/14 05:27:25;;;;;;;12.43;10.13;;;19.10;99.90;;;-144.05;59.37;125687.94;4940442;29;20035;-85
2022/08/14 05:29:53;;;;;;;;;;;19.20;99.90;;;-144.05;58.67;125687.94;4923793;29;20042;-85
2022/08/14 05:32:21;;;;;;;12.98;9.63;;;19.30;99.90;;;-144.05;58.32;125687.94;4940209;29;19910;-84
2022/08/14 05:34:47;;;;;;;11.07;9.30;;;19.50;99.90;;;-144.05;58.05;125687.94;4923364;29;20043;-86
2022/08/14 05:37:13;;;;;;;13.77;8.70;;;19.60;99.90;;;-144.05;57.85;125687.94;4923142;29;20031;-85
2022/08/14 05:39:42;;;;;;;11.65;8.82;;;19.80;99.90;;;-144.05;56.90;125687.94;4923904;29;20032;-85
2022/08/14 05:42:09;;;;;;;11.05;8.98;;;20.00;99.90;;;-144.05;56.02;125687.94;4941011;29;20103;-87
2022/08/14 05:44:36;;;;;;;10.70;9.20;;;20.20;99.90;;;-144.05;55.34;125687.94;4922400;29;20032;-84
2022/08/14 05:47:03;;;;;;;12.50;9.13;;;20.40;99.90;;;-144.05;53.76;125687.94;4923582;29;20031;-84
2022/08/14 05:49:29;;;;;;;10.00;8.43;;;20.50;99.90;;;-144.05;53.31;125687.94;4922855;29;20027;-86
2022/08/14 05:51:55;;;;;;;9.10;8.20;;;20.70;99.90;;;-144.05;52.57;125687.94;4941495;29;20151;-85
2022/08/14 05:54:21;;;;;;;8.85;7.85;;;20.80;99.90;;;-144.05;51.71;125687.94;4941773;29;20036;-84
2022/08/14 05:56:55;;;;;;;9.65;8.65;;;21.10;99.90;;;-144.05;50.45;125687.94;4922834;29;20505;-85
2022/08/14 05:59:25;;;;;;;11.95;8.68;;;21.30;99.90;;;-144.05;50.31;125687.94;4925586;29;20178;-84
2022/08/14 06:01:56;;;;;;;9.68;8.68;;;21.50;99.90;;;-144.05;49.44;125687.94;4925441;29;20028;-84
2022/08/14 06:04:27;;;;;;;8.38;7.53;;;21.70;99.90;;;-144.05;49.31;125687.94;4923462;29;20028;-82
2022/08/14 06:06:53;;;;;;;9.68;7.60;;;21.90;99.90;;;-144.05;48.42;125687.94;4923484;29;20441;-86
2022/08/14 06:09:20;;;;;;;8.82;7.90;;;22.20;99.90;;;-144.05;48.15;125687.94;4945362;29;20087;-85
2022/08/14 06:12:10;;;;;;;11.48;8.15;;;22.40;99.90;;;-144.05;47.63;125687.94;4938681;29;20055;-85
2022/08/14 06:14:36;;;;;;;11.68;7.53;;;22.60;99.90;;;-144.05;47.05;125687.94;4923303;29;20035;-87
2022/08/14 06:17:03;;;;;;;8.52;7.60;;;22.90;99.90;;;-144.05;46.42;125687.94;4923852;29;20109;-85
2022/08/14 06:19:38;;;;;;;9.45;8.32;;;23.10;99.90;;;-144.05;45.97;125687.94;4923228;29;20553;-87
2022/08/14 06:22:09;;;;;;;10.43;8.50;;;23.20;99.90;;;-144.05;45.30;125687.94;4925143;29;20024;-85
2022/08/14 06:24:54;;;;;;;8.23;7.43;;;23.20;99.90;;;-144.05;45.48;125687.94;4924613;29;20130;-85
2022/08/14 06:27:20;;;;;;;9.80;7.95;;;23.30;99.90;;;-144.05;45.68;125687.94;4924120;29;20454;-86
2022/08/14 06:29:48;;;;;;;10.07;8.88;;;23.40;99.90;;;-144.05;44.89;125687.94;4923777;29;20032;-85
2022/08/14 06:32:18;;;;;;;11.38;8.32;;;23.60;99.90;;;-144.05;44.78;125687.94;4923539;29;20032;-85
2022/08/14 06:34:44;;;;;;;9.85;8.15;;;23.70;99.90;;;-144.05;44.75;125687.94;4923717;29;20024;-85
2022/08/14 06:37:10;;;;;;;8.90;7.72;;;23.90;99.90;;;-144.05;44.27;125687.94;4923561;29;20079;-86
2022/08/14 06:39:36;;;;;;;10.10;8.15;;;24.00;99.90;;;-144.05;43.83;125687.94;4923548;29;20041;-85
2022/08/14 06:42:05;;;;;;;10.90;8.32;;;24.20;99.90;;;-144.05;43.57;125687.94;4925828;29;20036;-85
2022/08/14 06:44:33;;;;;;;10.25;8.23;;;24.40;99.90;;;-144.05;43.20;125687.94;4926410;29;20126;-86
2022/08/14 06:47:12;;;;;;;8.98;8.00;;;24.70;99.90;;;-144.05;42.94;125687.94;4923870;29;20398;-88
2022/08/14 06:49:38;;;;;;;10.43;7.35;;;24.80;99.90;;;-144.05;43.01;125687.94;4923207;29;20122;-86
2022/08/14 06:52:04;;;;;;;8.85;7.95;;;24.90;99.90;;;-144.05;42.36;125687.94;4923662;29;20114;-87
2022/08/14 06:54:30;;;;;;;9.25;8.15;;;25.00;99.90;;;-144.05;42.20;125687.94;4923628;29;20038;-86
2022/08/14 06:56:58;;;;;;;7.65;6.88;;;25.20;99.90;;;-144.05;41.95;125687.94;4923208;29;20036;-87
2022/08/14 06:59:27;;;;;;;11.52;8.18;;;25.40;99.90;;;-144.05;41.45;125687.94;4923978;29;20389;-86
2022/08/14 07:08:04;;;;;;;8.50;7.60;;;25.80;99.90;;;-144.05;40.74;125687.94;4946413;29;20087;-87
2022/08/14 07:10:32;;;;;;;8.27;7.38;;;25.90;99.90;;;-144.05;40.19;125687.94;4926910;29;20028;-84
2022/08/14 07:13:11;;;;;;;8.43;6.78;;;26.30;99.90;;;-144.05;39.31;125687.94;4923803;29;20030;-85
2022/08/14 07:15:41;;;;;;;8.70;7.10;;;26.60;99.90;;;-144.05;39.51;125687.94;4924942;29;20119;-86
2022/08/14 07:18:09;;;;;;;8.25;7.45;;;26.80;99.90;;;-144.05;38.48;125687.94;4923289;29;20059;-86
2022/08/14 07:20:37;;;;;;;8.45;7.55;;;26.90;99.90;;;-144.05;38.51;125687.94;4939029;29;20034;-85
2022/08/14 07:23:10;;;;;;;9.32;7.45;;;27.10;99.90;;;-144.05;38.37;125687.94;4939253;29;20027;-85
2022/08/14 07:25:39;;;;;;;9.45;7.15;;;27.20;99.90;;;-144.05;37.32;125687.94;4938701;29;20036;-84
2022/08/14 07:28:18;;;;;;;8.00;7.25;;;27.40;99.90;;;-144.05;37.24;125687.94;4921295;29;20028;-84
2022/08/14 07:30:44;;;;;;;7.57;6.78;;;27.50;99.90;;;-144.05;36.85;125687.94;4938082;29;20407;-85
2022/08/14 07:33:12;;;;;;;7.88;7.07;;;27.70;99.90;;;-144.05;36.61;125687.94;4921763;29;20055;-86
2022/08/14 07:35:40;;;;;;;7.82;6.75;;;27.60;99.90;;;-144.05;37.05;125687.94;4922509;29;20031;-86
2022/08/14 07:38:15;;;;;;;9.15;6.47;;;27.60;99.90;;;-144.05;36.37;125687.94;4940244;29;20080;-85
2022/08/14 07:40:41;;;;;;;8.52;6.90;;;27.80;99.90;;;-144.05;36.21;125687.94;4921682;29;20032;-84
2022/08/14 07:43:09;;;;;;;6.80;6.00;;;28.10;99.90;;;-144.05;35.95;125687.94;4921928;29;20043;-85
2022/08/14 07:45:35;;;;;;;6.95;5.78;;;28.40;99.90;;;-144.05;35.73;125687.94;4928499;29;20074;-84
2022/08/14 07:48:01;;;;;;;7.75;6.25;;;28.60;99.90;;;-144.05;35.19;125687.94;4946843;29;20508;-85
2022/08/14 07:50:27;;;;;;;7.95;6.95;;;28.70;99.20;;;-144.05;35.71;125687.94;4928755;29;20024;-86
2022/08/14 07:52:53;;;;;;;9.93;7.40;;;28.60;99.90;;;-144.05;35.90;125687.94;4932509;29;20058;-83
2022/08/14 07:55:20;;;;;;;7.57;6.13;;;28.50;99.80;;;-144.05;35.67;125687.94;4933801;29;20024;-82
2022/08/14 07:57:47;;;;;;;7.22;6.57;;;28.70;99.50;;;-144.05;35.11;125687.94;4932485;29;20040;-87
2022/08/14 08:00:21;;;;;;;8.38;6.75;;;28.90;98.40;;;-144.05;35.22;125687.94;4932591;29;20064;-84
2022/08/14 08:02:53;;;;;;;7.82;7.07;;;29.10;98.30;;;-144.05;35.47;125687.94;4947908;29;20063;-86
2022/08/14 08:05:23;;;;;;;9.57;6.15;;;29.10;98.00;;;-144.05;35.12;125687.94;4929488;29;20027;-87
2022/08/14 08:07:52;;;;;;;7.55;6.45;;;29.10;97.60;;;-144.05;35.66;125687.94;4928441;29;20032;-85
2022/08/14 08:10:32;;;;;;;8.05;7.20;;;29.20;98.50;;;-144.05;35.35;125687.94;4946267;29;20110;-86
2022/08/14 08:13:06;;;;;;;7.72;6.47;;;29.10;97.40;;;-144.05;34.57;125687.94;4954893;28;20027;-82
2022/08/14 08:15:42;;;;;;;7.20;6.50;;;29.30;96.70;;;-144.05;34.36;125687.94;4972078;28;20030;-83
2022/08/14 08:18:13;;;;;;;7.13;6.32;;;29.50;96.60;;;-144.05;34.69;125687.94;4993005;28;20038;-82
2022/08/14 08:21:07;;;;;;;7.20;6.35;;;29.60;96.40;;;-144.05;34.71;125687.94;4985746;28;20023;-86
2022/08/14 08:23:33;;;;;;;9.63;6.90;;;29.40;95.70;;;-144.05;34.90;125687.94;4963683;28;20035;-82
2022/08/14 08:25:59;;;;;;;8.18;6.63;;;29.40;95.90;;;-144.05;34.68;125687.94;4967794;28;20027;-84
2022/08/14 08:28:27;;;;;;;8.75;6.82;;;29.40;95.50;;;-144.05;34.91;125687.94;4967899;28;20099;-86
2022/08/14 08:31:04;;;;;;;6.95;6.25;;;29.40;96.00;;;-144.05;34.64;125687.94;4966334;28;20034;-88
2022/08/14 08:33:35;;;;;;;7.95;6.88;;;29.60;95.70;;;-144.05;34.25;125687.94;4985351;28;20102;-87
2022/08/14 08:36:10;;;;;;;7.45;6.40;;;29.90;94.90;;;-144.05;33.67;125687.94;4966528;28;20070;-85
2022/08/14 08:38:36;;;;;;;8.80;6.13;;;30.20;94.10;;;-144.05;33.86;125687.94;4964373;28;20034;-85
2022/08/14 08:41:02;;;;;;;7.85;6.40;;;30.10;94.30;;;-144.05;33.41;125687.94;4964869;28;20125;-86
2022/08/14 08:43:35;;;;;;;8.10;7.13;;;30.20;93.00;;;-144.05;33.64;125687.94;4980356;28;20117;-86
2022/08/14 08:46:05;;;;;;;6.88;6.28;;;30.30;93.40;;;-144.05;32.95;125687.94;4964876;28;20078;-84
2022/08/14 08:48:56;;;;;;;6.32;5.72;;;30.50;92.10;;;-144.05;32.94;125687.94;4981334;28;20023;-87
2022/08/14 08:51:37;;;;;;;6.85;6.15;;;30.80;91.80;;;-144.05;31.94;125687.94;4983025;28;20113;-86
2022/08/14 08:54:11;;;;;;;6.78;6.18;;;31.00;90.80;;;-144.05;31.56;125687.94;4980231;28;20502;-85
2022/08/14 08:56:48;;;;;;;9.05;5.97;;;31.30;89.50;;;-144.05;31.92;125687.94;4965884;28;20023;-86
2022/08/14 08:59:30;;;;;;;7.50;6.55;;;31.20;90.00;;;-144.05;32.49;125687.94;4966358;28;20166;-86
2022/08/14 09:02:00;;;;;;;8.32;6.57;;;31.00;89.30;;;-144.05;32.09;125687.94;4967289;28;20057;-85
2022/08/14 09:04:34;;;;;;;7.43;6.15;;;30.90;88.40;;;-144.05;31.90;125687.94;4965221;28;20046;-87
2022/08/14 09:07:01;;;;;;;6.80;6.10;;;31.10;87.80;;;-144.05;32.17;125687.94;4982956;28;20416;-86
2022/08/14 09:09:31;;;;;;;6.75;6.10;;;31.10;89.20;;;-144.05;31.71;125687.94;4967640;28;20035;-87
2022/08/14 09:12:02;;;;;;;7.95;6.25;;;31.40;87.50;;;-144.05;31.09;125687.94;4969693;28;20038;-83
2022/08/14 09:14:33;;;;;;;7.13;6.13;;;31.50;84.90;;;-144.05;31.24;125687.94;4950024;29;20036;-85
2022/08/14 09:17:00;;;;;;;8.32;6.07;;;31.60;84.00;;;-144.05;31.29;125687.94;4931668;29;20095;-86
2022/08/14 09:19:27;;;;;;;6.97;6.03;;;31.40;83.40;;;-144.05;31.13;125687.94;4934687;29;20035;-84
2022/08/14 09:21:53;;;;;;;7.50;5.80;;;31.50;82.30;;;-144.05;30.86;125687.94;4949074;29;20028;-84
2022/08/14 09:24:20;;;;;;;7.43;5.72;;;31.40;81.50;;;-144.05;31.02;125687.94;4944541;29;20024;-85
2022/08/14 09:26:47;;;;;;;7.07;5.43;;;31.80;82.30;;;-144.05;30.18;125687.94;4926638;29;20036;-84
2022/08/14 09:29:13;;;;;;;7.10;5.72;;;31.90;77.30;;;-144.05;30.82;125687.94;4926534;29;20060;-84
2022/08/14 09:31:49;;;;;;;6.60;5.85;;;32.10;79.80;;;-144.05;30.33;125687.94;4928054;29;20043;-85
2022/08/14 09:35:15;;;;;;;5.72;5.13;;;32.10;77.60;;;-144.05;30.43;125687.94;4944890;29;20032;-85
2022/08/14 09:38:15;;;;;;;6.30;5.70;;;32.20;76.60;;;-144.05;30.09;125687.94;4933265;29;20052;-84
2022/08/14 09:41:31;;;;;;;7.03;5.75;;;32.10;75.30;;;-144.05;30.21;125687.94;4940717;29;20054;-86
2022/08/14 09:44:13;;;;;;;6.32;5.22;;;32.20;76.00;;;-144.05;29.88;125687.94;4941858;29;20074;-86
2022/08/14 09:46:57;;;;;;;6.68;5.78;;;32.20;74.70;;;-144.05;29.47;125687.94;4928889;29;20035;-86
2022/08/14 09:49:39;;;;;;;5.03;4.63;;;32.40;73.80;;;-144.05;29.02;125687.94;4927107;29;20035;-86
2022/08/14 09:52:15;;;;;;;4.22;3.83;;;32.70;71.70;;;-144.05;27.88;125687.94;4942581;29;20027;-84
2022/08/14 09:54:47;;;;;;;5.88;4.47;;;32.80;66.50;;;-144.05;28.33;125687.94;4943030;29;20024;-84
2022/08/14 09:57:30;;;;;;;4.93;4.43;;;32.90;69.20;;;-144.05;28.34;125687.94;4927393;29;20039;-86
2022/08/14 09:59:56;;;;;;;6.97;5.18;;;33.00;68.00;;;-144.05;28.41;125687.94;4927001;29;20046;-85
2022/08/14 10:02:31;;;;;;;5.85;5.35;;;33.10;67.80;;;-144.05;28.19;125687.94;4925535;29;20043;-85
2022/08/14 10:05:10;;;;;;;5.05;4.65;;;33.20;67.00;;;-144.05;28.05;125687.94;4927651;29;20409;-83
2022/08/14 10:07:50;;;;;;;5.28;4.78;;;33.30;67.00;;;-144.05;28.80;125687.94;4926055;29;20377;-85
2022/08/14 10:10:40;;;;;;;5.57;5.03;;;33.00;67.00;;;-144.05;28.71;125687.94;4924644;29;20126;-86
2022/08/14 10:13:25;;;;;;;4.90;4.50;;;32.80;67.70;;;-144.05;28.16;125687.94;4942392;29;20122;-84
2022/08/14 10:15:59;;;;;;;6.22;4.82;;;32.80;65.50;;;-144.05;28.29;125687.94;4923721;29;20506;-84
2022/08/14 10:18:27;;;;;;;7.38;4.78;;;32.90;65.90;;;-144.05;28.66;125687.94;4924869;29;20044;-83
2022/08/14 10:21:00;;;;;;;5.88;4.63;;;32.80;66.50;;;-144.05;28.03;125687.94;4924458;29;20168;-83
2022/08/14 10:23:44;;;;;;;5.20;4.70;;;32.80;64.80;;;-144.05;28.07;125687.94;4951813;29;20091;-87
2022/08/14 10:26:18;;;;;;;5.50;4.97;;;33.00;65.30;;;-144.05;28.49;125687.94;4954960;29;20092;-87
2022/08/14 10:28:54;;;;;;;9.02;5.57;;;32.90;65.40;;;-144.05;28.34;125687.94;4923721;29;20103;-86
2022/08/14 10:31:31;;;;;;;6.53;5.13;;;32.90;65.10;;;-144.05;28.38;125687.94;4923371;29;20032;-84
2022/08/14 10:34:08;;;;;;;5.47;4.43;;;32.80;65.70;;;-144.05;28.96;125687.94;4924701;29;20036;-84